sensor_id;sensor_type;location;lat;lon;timestamp;pressure;altitude;pressure_sealevel;temperature;humidity
83697;BME280;73677;54.530;18.484;2024-03-08T00:00:20;102186.72;;;-1.40;92.73
83697;BME280;73677;54.530;18.484;2024-03-08T00:03:10;102181.44;;;-1.53;92.88
83697;BME280;73677;54.530;18.484;2024-03-08T00:05:39;102182.09;;;-1.62;92.28
83697;BME280;73677;54.530;18.484;2024-03-08T00:08:09;102168.09;;;-1.67;93.01
83697;BME280;73677;54.530;18.484;2024-03-08T00:10:37;102178.03;;;-1.67;92.35
83697;BME280;73677;54.530;18.484;2024-03-08T00:13:06;102172.59;;;-1.79;92.65
83697;BME280;73677;54.530;18.484;2024-03-08T00:15:35;102143.44;;;-1.97;92.76
83697;BME280;73677;54.530;18.484;2024-03-08T00:18:04;102179.47;;;-1.75;93.20
83697;BME280;73677;54.530;18.484;2024-03-08T00:20:34;102170.00;;;-1.80;92.64
83697;BME280;73677;54.530;18.484;2024-03-08T00:23:03;102180.66;;;-1.79;92.82
83697;BME280;73677;54.530;18.484;2024-03-08T00:25:31;102172.69;;;-1.80;93.28
83697;BME280;73677;54.530;18.484;2024-03-08T00:28:01;102171.81;;;-1.81;92.77
83697;BME280;73677;54.530;18.484;2024-03-08T00:30:31;102178.09;;;-1.80;92.92
83697;BME280;73677;54.530;18.484;2024-03-08T00:33:00;102171.81;;;-1.81;92.51
83697;BME280;73677;54.530;18.484;2024-03-08T00:35:28;102166.44;;;-1.81;92.73
83697;BME280;73677;54.530;18.484;2024-03-08T00:37:59;102174.00;;;-1.86;92.69
83697;BME280;73677;54.530;18.484;2024-03-08T00:40:27;102161.94;;;-1.93;92.50
83697;BME280;73677;54.530;18.484;2024-03-08T00:42:56;102164.63;;;-1.93;93.15
83697;BME280;73677;54.530;18.484;2024-03-08T00:45:24;102157.41;;;-1.92;92.79
83697;BME280;73677;54.530;18.484;2024-03-08T00:47:53;102149.91;;;-2.00;93.00
83697;BME280;73677;54.530;18.484;2024-03-08T00:50:21;102155.66;;;-2.04;93.08
83697;BME280;73677;54.530;18.484;2024-03-08T00:52:50;102153.16;;;-2.07;93.08
83697;BME280;73677;54.530;18.484;2024-03-08T00:55:20;102148.53;;;-2.05;93.07
83697;BME280;73677;54.530;18.484;2024-03-08T00:57:48;102148.00;;;-2.10;92.74
83697;BME280;73677;54.530;18.484;2024-03-08T01:00:17;102147.34;;;-2.14;93.02
83697;BME280;73677;54.530;18.484;2024-03-08T01:02:47;102150.19;;;-2.16;92.99
83697;BME280;73677;54.530;18.484;2024-03-08T01:05:15;102143.19;;;-2.18;93.13
83697;BME280;73677;54.530;18.484;2024-03-08T01:07:44;102139.97;;;-2.23;92.99
83697;BME280;73677;54.530;18.484;2024-03-08T01:10:13;102136.19;;;-2.21;93.35
83697;BME280;73677;54.530;18.484;2024-03-08T01:12:43;102128.66;;;-2.28;93.09
83697;BME280;73677;54.530;18.484;2024-03-08T01:15:12;102130.91;;;-2.22;93.39
83697;BME280;73677;54.530;18.484;2024-03-08T01:17:41;102131.66;;;-2.20;93.38
83697;BME280;73677;54.530;18.484;2024-03-08T01:20:11;102123.06;;;-2.25;93.17
83697;BME280;73677;54.530;18.484;2024-03-08T01:22:40;102084.78;;;-2.54;93.37
83697;BME280;73677;54.530;18.484;2024-03-08T01:25:09;102112.22;;;-2.36;93.29
83697;BME280;73677;54.530;18.484;2024-03-08T01:27:37;102111.69;;;-2.41;92.93
83697;BME280;73677;54.530;18.484;2024-03-08T01:30:08;102125.03;;;-2.40;93.17
83697;BME280;73677;54.530;18.484;2024-03-08T01:32:38;102118.91;;;-2.42;93.46
83697;BME280;73677;54.530;18.484;2024-03-08T01:35:07;102113.72;;;-2.45;93.43
83697;BME280;73677;54.530;18.484;2024-03-08T01:37:37;102119.00;;;-2.43;93.33
83697;BME280;73677;54.530;18.484;2024-03-08T01:40:07;102117.81;;;-2.39;93.71
83697;BME280;73677;54.530;18.484;2024-03-08T01:42:37;102075.66;;;-2.64;92.85
83697;BME280;73677;54.530;18.484;2024-03-08T01:45:07;102108.88;;;-2.40;93.45
83697;BME280;73677;54.530;18.484;2024-03-08T01:47:37;102110.16;;;-2.45;93.41
83697;BME280;73677;54.530;18.484;2024-03-08T01:50:07;102102.56;;;-2.51;93.09
83697;BME280;73677;54.530;18.484;2024-03-08T01:52:36;102090.41;;;-2.57;93.45
83697;BME280;73677;54.530;18.484;2024-03-08T01:55:06;102102.44;;;-2.50;93.22
83697;BME280;73677;54.530;18.484;2024-03-08T01:57:35;102104.59;;;-2.55;93.17
83697;BME280;73677;54.530;18.484;2024-03-08T02:00:07;102101.91;;;-2.55;93.24
83697;BME280;73677;54.530;18.484;2024-03-08T02:02:40;102091.38;;;-2.58;93.30
83697;BME280;73677;54.530;18.484;2024-03-08T02:05:10;102005.06;;;-3.04;93.35
83697;BME280;73677;54.530;18.484;2024-03-08T02:07:40;102094.94;;;-2.58;93.24
83697;BME280;73677;54.530;18.484;2024-03-08T02:10:11;102083.31;;;-2.58;93.40
83697;BME280;73677;54.530;18.484;2024-03-08T02:12:40;102084.38;;;-2.61;93.21
83697;BME280;73677;54.530;18.484;2024-03-08T02:15:10;102080.81;;;-2.61;93.10
83697;BME280;73677;54.530;18.484;2024-03-08T02:17:39;102080.94;;;-2.63;93.14
83697;BME280;73677;54.530;18.484;2024-03-08T02:20:08;102084.59;;;-2.64;93.40
83697;BME280;73677;54.530;18.484;2024-03-08T02:22:39;102062.22;;;-2.64;93.25
83697;BME280;73677;54.530;18.484;2024-03-08T02:25:08;102069.41;;;-2.65;93.09
83697;BME280;73677;54.530;18.484;2024-03-08T02:27:37;102066.09;;;-2.68;93.02
83697;BME280;73677;54.530;18.484;2024-03-08T02:30:06;102078.13;;;-2.61;93.16
83697;BME280;73677;54.530;18.484;2024-03-08T02:32:35;102077.72;;;-2.68;92.96
83697;BME280;73677;54.530;18.484;2024-03-08T02:35:04;102068.88;;;-2.70;93.23
83697;BME280;73677;54.530;18.484;2024-03-08T02:37:33;102068.88;;;-2.70;93.52
83697;BME280;73677;54.530;18.484;2024-03-08T02:40:04;102063.50;;;-2.70;93.11
83697;BME280;73677;54.530;18.484;2024-03-08T02:42:33;102058.91;;;-2.80;93.03
83697;BME280;73677;54.530;18.484;2024-03-08T02:45:01;102058.56;;;-2.76;93.05
83697;BME280;73677;54.530;18.484;2024-03-08T02:47:33;102057.69;;;-2.76;92.87
83697;BME280;73677;54.530;18.484;2024-03-08T02:50:02;102057.59;;;-2.75;92.98
83697;BME280;73677;54.530;18.484;2024-03-08T02:52:31;102058.56;;;-2.76;93.11
83697;BME280;73677;54.530;18.484;2024-03-08T02:55:00;102057.59;;;-2.75;93.21
83697;BME280;73677;54.530;18.484;2024-03-08T02:57:30;102054.91;;;-2.75;92.98
83697;BME280;73677;54.530;18.484;2024-03-08T02:59:58;102054.03;;;-2.75;93.08
83697;BME280;73677;54.530;18.484;2024-03-08T03:02:28;102054.91;;;-2.75;93.10
83697;BME280;73677;54.530;18.484;2024-03-08T03:04:56;102047.38;;;-2.70;92.90
83697;BME280;73677;54.530;18.484;2024-03-08T03:07:25;102042.94;;;-2.71;92.81
83697;BME280;73677;54.530;18.484;2024-03-08T03:09:54;102044.16;;;-2.75;92.87
83697;BME280;73677;54.530;18.484;2024-03-08T03:12:23;102043.28;;;-2.75;93.46
83697;BME280;73677;54.530;18.484;2024-03-08T03:14:53;102034.34;;;-2.76;93.11
83697;BME280;73677;54.530;18.484;2024-03-08T03:17:22;102038.25;;;-2.80;92.96
83697;BME280;73677;54.530;18.484;2024-03-08T03:19:51;102022.19;;;-2.81;93.13
83697;BME280;73677;54.530;18.484;2024-03-08T03:22:20;102045.22;;;-2.77;92.73
83697;BME280;73677;54.530;18.484;2024-03-08T03:24:48;102041.69;;;-2.78;92.93
83697;BME280;73677;54.530;18.484;2024-03-08T03:27:18;102047.19;;;-2.79;92.85
83697;BME280;73677;54.530;18.484;2024-03-08T03:29:47;102049.75;;;-2.78;92.70
83697;BME280;73677;54.530;18.484;2024-03-08T03:32:18;102046.53;;;-2.83;92.74
83697;BME280;73677;54.530;18.484;2024-03-08T03:34:46;102042.22;;;-2.85;92.78
83697;BME280;73677;54.530;18.484;2024-03-08T03:37:15;101922.09;;;-3.59;92.63
83697;BME280;73677;54.530;18.484;2024-03-08T03:39:45;102052.88;;;-2.84;93.13
83697;BME280;73677;54.530;18.484;2024-03-08T03:42:17;102036.75;;;-2.84;93.00
83697;BME280;73677;54.530;18.484;2024-03-08T03:44:46;102048.66;;;-2.75;93.08
83697;BME280;73677;54.530;18.484;2024-03-08T03:47:15;102040.25;;;-2.71;92.85
83697;BME280;73677;54.530;18.484;2024-03-08T03:49:45;102038.31;;;-2.69;92.95
83697;BME280;73677;54.530;18.484;2024-03-08T03:52:14;102041.31;;;-2.61;92.53
83697;BME280;73677;54.530;18.484;2024-03-08T03:54:42;102045.63;;;-2.58;92.49
83697;BME280;73677;54.530;18.484;2024-03-08T03:57:11;102039.28;;;-2.57;92.34
83697;BME280;73677;54.530;18.484;2024-03-08T03:59:40;102012.63;;;-2.73;92.41
83697;BME280;73677;54.530;18.484;2024-03-08T04:02:09;102037.97;;;-2.51;92.56
83697;BME280;73677;54.530;18.484;2024-03-08T04:04:37;102035.44;;;-2.42;92.31
83697;BME280;73677;54.530;18.484;2024-03-08T04:07:07;102032.75;;;-2.42;92.11
83697;BME280;73677;54.530;18.484;2024-03-08T04:09:38;102036.84;;;-2.36;92.10
83697;BME280;73677;54.530;18.484;2024-03-08T04:12:07;102036.50;;;-2.32;92.17
83697;BME280;73677;54.530;18.484;2024-03-08T04:14:40;102031.31;;;-2.35;92.34
83697;BME280;73677;54.530;18.484;2024-03-08T04:17:09;102039.59;;;-2.25;92.18
83697;BME280;73677;54.530;18.484;2024-03-08T04:19:38;102027.97;;;-2.26;91.78
83697;BME280;73677;54.530;18.484;2024-03-08T04:22:08;102026.13;;;-2.25;91.98
83697;BME280;73677;54.530;18.484;2024-03-08T04:24:36;102021.47;;;-2.23;91.96
83697;BME280;73677;54.530;18.484;2024-03-08T04:27:07;102017.91;;;-2.24;92.00
83697;BME280;73677;54.530;18.484;2024-03-08T04:29:36;102017.06;;;-2.24;91.90
83697;BME280;73677;54.530;18.484;2024-03-08T04:32:06;102023.31;;;-2.24;91.87
83697;BME280;73677;54.530;18.484;2024-03-08T04:34:35;102021.88;;;-2.17;91.81
83697;BME280;73677;54.530;18.484;2024-03-08T04:37:04;102016.38;;;-2.15;91.65
83697;BME280;73677;54.530;18.484;2024-03-08T04:39:34;102015.78;;;-2.07;91.79
83697;BME280;73677;54.530;18.484;2024-03-08T04:42:03;102021.59;;;-2.01;91.46
83697;BME280;73677;54.530;18.484;2024-03-08T04:44:33;102017.69;;;-1.97;91.67
83697;BME280;73677;54.530;18.484;2024-03-08T04:47:02;102016.47;;;-1.93;91.49
83697;BME280;73677;54.530;18.484;2024-03-08T04:49:32;102016.84;;;-1.86;91.21
83697;BME280;73677;54.530;18.484;2024-03-08T04:52:01;102015.78;;;-1.84;91.21
83697;BME280;73677;54.530;18.484;2024-03-08T04:54:31;102002.06;;;-1.81;91.44
83697;BME280;73677;54.530;18.484;2024-03-08T04:57:01;102009.44;;;-1.72;90.97
83697;BME280;73677;54.530;18.484;2024-03-08T04:59:35;102002.00;;;-1.68;91.21
83697;BME280;73677;54.530;18.484;2024-03-08T05:02:04;102023.22;;;-1.52;91.53
83697;BME280;73677;54.530;18.484;2024-03-08T05:04:34;102019.53;;;-1.51;90.68
83697;BME280;73677;54.530;18.484;2024-03-08T05:07:03;102007.53;;;-1.47;90.73
83697;BME280;73677;54.530;18.484;2024-03-08T05:09:31;102018.06;;;-1.44;90.99
83697;BME280;73677;54.530;18.484;2024-03-08T05:12:02;102011.34;;;-1.39;90.73
83697;BME280;73677;54.530;18.484;2024-03-08T05:14:30;102014.44;;;-1.32;90.48
83697;BME280;73677;54.530;18.484;2024-03-08T05:16:59;102008.41;;;-1.24;90.71
83697;BME280;73677;54.530;18.484;2024-03-08T05:19:27;102014.06;;;-1.16;90.87
83697;BME280;73677;54.530;18.484;2024-03-08T05:22:01;102004.16;;;-1.16;90.73
83697;BME280;73677;54.530;18.484;2024-03-08T05:24:30;102010.38;;;-1.04;90.14
83697;BME280;73677;54.530;18.484;2024-03-08T05:26:58;102006.22;;;-0.97;90.33
83697;BME280;73677;54.530;18.484;2024-03-08T05:29:29;102001.44;;;-0.94;90.17
83697;BME280;73677;54.530;18.484;2024-03-08T05:31:58;102006.59;;;-0.91;90.49
83697;BME280;73677;54.530;18.484;2024-03-08T05:34:26;102003.63;;;-0.88;89.85
83697;BME280;73677;54.530;18.484;2024-03-08T05:36:56;102008.31;;;-0.90;90.41
83697;BME280;73677;54.530;18.484;2024-03-08T05:39:25;101995.53;;;-0.88;89.97
83697;BME280;73677;54.530;18.484;2024-03-08T05:41:54;102009.16;;;-0.78;89.61
83697;BME280;73677;54.530;18.484;2024-03-08T05:44:23;102010.00;;;-0.77;89.54
83697;BME280;73677;54.530;18.484;2024-03-08T05:46:53;102010.75;;;-0.75;89.08
83697;BME280;73677;54.530;18.484;2024-03-08T05:49:23;102007.47;;;-0.79;88.51
83697;BME280;73677;54.530;18.484;2024-03-08T05:51:52;101994.69;;;-0.77;88.57
83697;BME280;73677;54.530;18.484;2024-03-08T05:54:21;101997.47;;;-0.67;88.74
83697;BME280;73677;54.530;18.484;2024-03-08T05:56:52;101953.97;;;-0.85;89.47
83697;BME280;73677;54.530;18.484;2024-03-08T05:59:21;102005.91;;;-0.38;89.46
83697;BME280;73677;54.530;18.484;2024-03-08T06:01:51;102003.03;;;-0.26;89.60
83697;BME280;73677;54.530;18.484;2024-03-08T06:04:20;101992.97;;;-0.24;88.67
83697;BME280;73677;54.530;18.484;2024-03-08T06:06:49;101996.22;;;-0.09;88.43
83697;BME280;73677;54.530;18.484;2024-03-08T06:09:18;101996.44;;;-0.01;87.80
83697;BME280;73677;54.530;18.484;2024-03-08T06:11:51;102014.03;;;-0.07;88.30
83697;BME280;73677;54.530;18.484;2024-03-08T06:14:21;102003.13;;;0.16;89.28
83697;BME280;73677;54.530;18.484;2024-03-08T06:16:51;101996.66;;;0.28;88.60
83697;BME280;73677;54.530;18.484;2024-03-08T06:19:21;101999.13;;;0.31;87.51
83697;BME280;73677;54.530;18.484;2024-03-08T06:21:50;101995.03;;;0.36;87.60
83697;BME280;73677;54.530;18.484;2024-03-08T06:24:18;102006.78;;;0.47;87.66
83697;BME280;73677;54.530;18.484;2024-03-08T06:26:47;101999.31;;;0.60;87.81
83697;BME280;73677;54.530;18.484;2024-03-08T06:29:15;102002.88;;;0.60;86.38
83697;BME280;73677;54.530;18.484;2024-03-08T06:31:44;101997.38;;;0.71;86.91
83697;BME280;73677;54.530;18.484;2024-03-08T06:34:13;102009.72;;;0.64;85.48
83697;BME280;73677;54.530;18.484;2024-03-08T06:36:44;101987.16;;;0.54;86.65
83697;BME280;73677;54.530;18.484;2024-03-08T06:39:12;102013.84;;;0.89;87.17
83697;BME280;73677;54.530;18.484;2024-03-08T06:41:41;101995.75;;;0.90;85.65
83697;BME280;73677;54.530;18.484;2024-03-08T06:44:11;102007.09;;;1.04;85.46
83697;BME280;73677;54.530;18.484;2024-03-08T06:46:39;102010.09;;;1.11;85.89
83697;BME280;73677;54.530;18.484;2024-03-08T06:49:08;102011.44;;;1.26;85.83
83697;BME280;73677;54.530;18.484;2024-03-08T06:51:38;102012.94;;;1.40;85.67
83697;BME280;73677;54.530;18.484;2024-03-08T06:54:09;102006.97;;;1.55;85.55
83697;BME280;73677;54.530;18.484;2024-03-08T06:56:37;102012.72;;;1.72;84.05
83697;BME280;73677;54.530;18.484;2024-03-08T06:59:06;102008.03;;;1.83;83.13
83697;BME280;73677;54.530;18.484;2024-03-08T07:01:40;102011.03;;;1.90;82.36
83697;BME280;73677;54.530;18.484;2024-03-08T07:04:08;102007.50;;;1.99;81.74
83697;BME280;73677;54.530;18.484;2024-03-08T07:06:39;102003.47;;;2.12;81.35
83697;BME280;73677;54.530;18.484;2024-03-08T07:09:09;102013.91;;;1.98;79.82
83697;BME280;73677;54.530;18.484;2024-03-08T07:11:39;102006.19;;;2.03;80.19
83697;BME280;73677;54.530;18.484;2024-03-08T07:14:11;102002.06;;;2.18;79.47
83697;BME280;73677;54.530;18.484;2024-03-08T07:16:42;102003.34;;;2.33;79.10
83697;BME280;73677;54.530;18.484;2024-03-08T07:19:11;102004.88;;;2.36;78.07
83697;BME280;73677;54.530;18.484;2024-03-08T07:21:40;101968.22;;;2.12;76.94
83697;BME280;73677;54.530;18.484;2024-03-08T07:24:10;101976.56;;;2.58;78.17
83697;BME280;73677;54.530;18.484;2024-03-08T07:26:55;101982.91;;;2.95;77.91
83697;BME280;73677;54.530;18.484;2024-03-08T07:29:23;101994.06;;;3.19;75.54
83697;BME280;73677;54.530;18.484;2024-03-08T07:31:52;101985.41;;;3.43;76.00
83697;BME280;73677;54.530;18.484;2024-03-08T07:34:29;101982.34;;;3.56;74.93
83697;BME280;73677;54.530;18.484;2024-03-08T07:36:59;101937.63;;;3.40;73.55
83697;BME280;73677;54.530;18.484;2024-03-08T07:39:29;101983.19;;;3.74;71.93
83697;BME280;73677;54.530;18.484;2024-03-08T07:41:58;101970.41;;;4.02;71.88
83697;BME280;73677;54.530;18.484;2024-03-08T07:44:26;101972.09;;;4.20;71.24
83697;BME280;73677;54.530;18.484;2024-03-08T07:46:55;101969.31;;;5.07;69.10
83697;BME280;73677;54.530;18.484;2024-03-08T07:49:24;101918.44;;;6.23;64.32
83697;BME280;73677;54.530;18.484;2024-03-08T07:51:53;101941.56;;;6.84;61.87
83697;BME280;73677;54.530;18.484;2024-03-08T07:54:21;101924.38;;;7.14;59.74
83697;BME280;73677;54.530;18.484;2024-03-08T07:56:52;101927.09;;;7.22;58.66
83697;BME280;73677;54.530;18.484;2024-03-08T07:59:20;101934.63;;;7.12;58.89
83697;BME280;73677;54.530;18.484;2024-03-08T08:01:49;101934.44;;;6.66;59.54
83697;BME280;73677;54.530;18.484;2024-03-08T08:04:17;101944.03;;;6.14;61.02
83697;BME280;73677;54.530;18.484;2024-03-08T08:06:51;101938.19;;;6.65;61.12
83697;BME280;73677;54.530;18.484;2024-03-08T08:09:22;101926.28;;;6.42;60.33
83697;BME280;73677;54.530;18.484;2024-03-08T08:12:03;101923.88;;;6.55;58.94
83697;BME280;73677;54.530;18.484;2024-03-08T08:14:32;101923.41;;;6.44;59.42
83697;BME280;73677;54.530;18.484;2024-03-08T08:17:00;101891.00;;;9.43;53.24
83697;BME280;73677;54.530;18.484;2024-03-08T08:19:31;101858.16;;;11.58;46.31
83697;BME280;73677;54.530;18.484;2024-03-08T08:22:00;101837.44;;;13.76;41.67
83697;BME280;73677;54.530;18.484;2024-03-08T08:24:29;101843.34;;;13.41;40.99
83697;BME280;73677;54.530;18.484;2024-03-08T08:26:58;101849.44;;;13.19;40.76
83697;BME280;73677;54.530;18.484;2024-03-08T08:29:28;101794.25;;;12.99;41.31
83697;BME280;73677;54.530;18.484;2024-03-08T08:31:57;101850.41;;;12.66;41.79
83697;BME280;73677;54.530;18.484;2024-03-08T08:34:28;101859.13;;;13.34;40.67
83697;BME280;73677;54.530;18.484;2024-03-08T08:36:58;101853.25;;;13.04;40.64
83697;BME280;73677;54.530;18.484;2024-03-08T08:39:27;101851.06;;;14.02;39.81
83697;BME280;73677;54.530;18.484;2024-03-08T08:41:56;101829.84;;;13.96;38.98
83697;BME280;73677;54.530;18.484;2024-03-08T08:44:24;101853.09;;;13.82;39.28
83697;BME280;73677;54.530;18.484;2024-03-08T08:46:56;101841.13;;;14.19;38.33
83697;BME280;73677;54.530;18.484;2024-03-08T08:49:35;101815.22;;;15.00;36.86
83697;BME280;73677;54.530;18.484;2024-03-08T08:52:05;101822.78;;;15.41;35.64
83697;BME280;73677;54.530;18.484;2024-03-08T08:54:42;101834.38;;;15.49;35.23
83697;BME280;73677;54.530;18.484;2024-03-08T08:57:16;101825.16;;;16.62;34.15
83697;BME280;73677;54.530;18.484;2024-03-08T08:59:45;101822.84;;;16.82;33.37
83697;BME280;73677;54.530;18.484;2024-03-08T09:02:15;101824.63;;;16.30;33.72
83697;BME280;73677;54.530;18.484;2024-03-08T09:04:46;101829.13;;;16.42;33.17
83697;BME280;73677;54.530;18.484;2024-03-08T09:07:16;101824.53;;;16.94;32.82
83697;BME280;73677;54.530;18.484;2024-03-08T09:09:46;101825.03;;;16.68;33.13
83697;BME280;73677;54.530;18.484;2024-03-08T09:12:14;101818.75;;;16.61;32.82
83697;BME280;73677;54.530;18.484;2024-03-08T09:14:43;101824.66;;;16.41;33.31
83697;BME280;73677;54.530;18.484;2024-03-08T09:17:11;101827.28;;;16.25;33.38
83697;BME280;73677;54.530;18.484;2024-03-08T09:19:45;101814.00;;;16.97;32.49
83697;BME280;73677;54.530;18.484;2024-03-08T09:22:15;101813.19;;;16.84;33.33
83697;BME280;73677;54.530;18.484;2024-03-08T09:24:43;101811.03;;;17.55;31.66
83697;BME280;73677;54.530;18.484;2024-03-08T09:27:13;101809.78;;;17.06;31.47
83697;BME280;73677;54.530;18.484;2024-03-08T09:29:41;101811.50;;;16.83;32.34
83697;BME280;73677;54.530;18.484;2024-03-08T09:32:11;101813.22;;;15.85;33.71
83697;BME280;73677;54.530;18.484;2024-03-08T09:34:39;101817.31;;;15.82;34.43
83697;BME280;73677;54.530;18.484;2024-03-08T09:37:09;101814.09;;;15.85;34.03
83697;BME280;73677;54.530;18.484;2024-03-08T09:39:38;101826.78;;;16.04;34.49
83697;BME280;73677;54.530;18.484;2024-03-08T09:42:07;101819.88;;;15.54;34.76
83697;BME280;73677;54.530;18.484;2024-03-08T09:44:36;101812.59;;;16.36;33.89
83697;BME280;73677;54.530;18.484;2024-03-08T09:47:06;101807.66;;;16.61;33.26
83697;BME280;73677;54.530;18.484;2024-03-08T09:49:35;101810.25;;;16.91;33.24
83697;BME280;73677;54.530;18.484;2024-03-08T09:52:05;101791.03;;;17.01;32.18
83697;BME280;73677;54.530;18.484;2024-03-08T09:54:35;101803.53;;;16.40;32.88
83697;BME280;73677;54.530;18.484;2024-03-08T09:57:04;101804.38;;;15.76;34.10
83697;BME280;73677;54.530;18.484;2024-03-08T09:59:36;101814.03;;;15.25;35.34
83697;BME280;73677;54.530;18.484;2024-03-08T10:02:16;101805.53;;;15.09;35.56
83697;BME280;73677;54.530;18.484;2024-03-08T10:04:45;101798.06;;;15.39;34.84
83697;BME280;73677;54.530;18.484;2024-03-08T10:07:17;101799.66;;;14.19;36.66
83697;BME280;73677;54.530;18.484;2024-03-08T10:09:47;101816.66;;;14.66;36.54
83697;BME280;73677;54.530;18.484;2024-03-08T10:12:18;101548.75;;;13.72;35.64
83697;BME280;73677;54.530;18.484;2024-03-08T10:14:46;101791.56;;;16.05;33.86
83697;BME280;73677;54.530;18.484;2024-03-08T10:17:15;101785.75;;;16.88;32.68
83697;BME280;73677;54.530;18.484;2024-03-08T10:19:51;101734.16;;;16.64;32.30
83697;BME280;73677;54.530;18.484;2024-03-08T10:22:20;101790.25;;;16.66;33.40
83697;BME280;73677;54.530;18.484;2024-03-08T10:24:50;101778.88;;;17.30;32.59
83697;BME280;73677;54.530;18.484;2024-03-08T10:27:19;101744.41;;;17.60;31.33
83697;BME280;73677;54.530;18.484;2024-03-08T10:29:48;101783.38;;;16.80;32.87
83697;BME280;73677;54.530;18.484;2024-03-08T10:32:19;101775.94;;;17.37;32.12
83697;BME280;73677;54.530;18.484;2024-03-08T10:34:48;101771.16;;;17.61;31.58
83697;BME280;73677;54.530;18.484;2024-03-08T10:37:21;101770.34;;;18.10;30.42
83697;BME280;73677;54.530;18.484;2024-03-08T10:40:02;101779.75;;;17.19;31.99
83697;BME280;73677;54.530;18.484;2024-03-08T10:42:41;101785.97;;;17.38;32.50
83697;BME280;73677;54.530;18.484;2024-03-08T10:45:15;101778.84;;;17.42;32.37
83697;BME280;73677;54.530;18.484;2024-03-08T10:47:53;101765.94;;;17.81;31.31
83697;BME280;73677;54.530;18.484;2024-03-08T10:50:26;101772.59;;;16.95;31.24
83697;BME280;73677;54.530;18.484;2024-03-08T10:52:57;101769.72;;;16.55;32.75
83697;BME280;73677;54.530;18.484;2024-03-08T10:55:31;101757.59;;;15.08;35.66
83697;BME280;73677;54.530;18.484;2024-03-08T10:58:01;101817.81;;;13.01;39.83
83697;BME280;73677;54.530;18.484;2024-03-08T11:00:30;101815.69;;;10.72;43.95
83697;BME280;73677;54.530;18.484;2024-03-08T11:02:59;101842.53;;;10.42;46.64
83697;BME280;73677;54.530;18.484;2024-03-08T11:05:32;101846.56;;;10.67;46.61
83697;BME280;73677;54.530;18.484;2024-03-08T11:08:03;101839.88;;;10.83;45.31
83697;BME280;73677;54.530;18.484;2024-03-08T11:10:46;101858.88;;;9.58;48.47
83697;BME280;73677;54.530;18.484;2024-03-08T11:13:32;101866.75;;;9.25;49.92
83697;BME280;73677;54.530;18.484;2024-03-08T11:16:01;101849.06;;;10.13;47.79
83697;BME280;73677;54.530;18.484;2024-03-08T11:18:33;101831.47;;;10.56;46.44
83697;BME280;73677;54.530;18.484;2024-03-08T11:21:02;101843.50;;;11.44;44.84
83697;BME280;73677;54.530;18.484;2024-03-08T11:23:34;101857.00;;;10.50;47.48
83697;BME280;73677;54.530;18.484;2024-03-08T11:26:17;101839.13;;;11.69;45.27
83697;BME280;73677;54.530;18.484;2024-03-08T11:28:46;101836.22;;;11.77;44.50
83697;BME280;73677;54.530;18.484;2024-03-08T11:31:25;101824.56;;;12.21;42.87
83697;BME280;73677;54.530;18.484;2024-03-08T11:33:56;101824.75;;;12.20;43.16
83697;BME280;73677;54.530;18.484;2024-03-08T11:36:25;101811.63;;;11.15;44.67
83697;BME280;73677;54.530;18.484;2024-03-08T11:38:53;101838.44;;;10.93;46.32
83697;BME280;73677;54.530;18.484;2024-03-08T11:41:24;101868.47;;;9.84;48.96
83697;BME280;73677;54.530;18.484;2024-03-08T11:44:02;101865.63;;;8.46;52.83
83697;BME280;73677;54.530;18.484;2024-03-08T11:46:34;101873.34;;;9.67;50.66
83697;BME280;73677;54.530;18.484;2024-03-08T11:49:03;101853.06;;;9.89;49.06
83697;BME280;73677;54.530;18.484;2024-03-08T11:51:33;101866.50;;;8.62;52.50
83697;BME280;73677;54.530;18.484;2024-03-08T11:54:02;101857.75;;;8.06;53.85
83697;BME280;73677;54.530;18.484;2024-03-08T11:56:34;101861.06;;;8.39;54.23
83697;BME280;73677;54.530;18.484;2024-03-08T11:59:03;101858.16;;;9.14;51.23
83697;BME280;73677;54.530;18.484;2024-03-08T12:01:32;101867.31;;;9.21;53.05
83697;BME280;73677;54.530;18.484;2024-03-08T12:04:01;101852.28;;;9.95;49.51
83697;BME280;73677;54.530;18.484;2024-03-08T12:06:37;101844.34;;;9.43;50.80
83697;BME280;73677;54.530;18.484;2024-03-08T12:09:08;101829.38;;;10.65;48.81
83697;BME280;73677;54.530;18.484;2024-03-08T12:11:39;101817.38;;;11.20;46.97
83697;BME280;73677;54.530;18.484;2024-03-08T12:14:08;101814.63;;;11.14;46.81
83697;BME280;73677;54.530;18.484;2024-03-08T12:16:37;101811.69;;;11.28;46.63
83697;BME280;73677;54.530;18.484;2024-03-08T12:19:06;101807.63;;;11.18;45.99
83697;BME280;73677;54.530;18.484;2024-03-08T12:21:36;101798.81;;;11.48;46.10
83697;BME280;73677;54.530;18.484;2024-03-08T12:24:06;101798.63;;;11.63;45.53
83697;BME280;73677;54.530;18.484;2024-03-08T12:26:38;101794.53;;;11.26;46.00
83697;BME280;73677;54.530;18.484;2024-03-08T12:29:24;101770.19;;;11.36;46.07
83697;BME280;73677;54.530;18.484;2024-03-08T12:31:55;101771.94;;;11.51;45.53
83697;BME280;73677;54.530;18.484;2024-03-08T12:34:26;101791.44;;;10.95;46.33
83697;BME280;73677;54.530;18.484;2024-03-08T12:36:55;101808.50;;;10.36;48.64
83697;BME280;73677;54.530;18.484;2024-03-08T12:39:24;101810.34;;;10.08;48.94
83697;BME280;73677;54.530;18.484;2024-03-08T12:41:56;101795.22;;;10.46;48.49
83697;BME280;73677;54.530;18.484;2024-03-08T12:44:27;101800.03;;;10.72;47.69
83697;BME280;73677;54.530;18.484;2024-03-08T12:46:58;101794.56;;;10.44;48.18
83697;BME280;73677;54.530;18.484;2024-03-08T12:49:28;101804.72;;;10.16;49.52
83697;BME280;73677;54.530;18.484;2024-03-08T12:51:58;101805.31;;;9.90;50.00
83697;BME280;73677;54.530;18.484;2024-03-08T12:54:26;101800.09;;;9.95;49.79
83697;BME280;73677;54.530;18.484;2024-03-08T12:56:56;101811.16;;;9.38;50.51